Dubai, UAE

2:46 AM GST on December 11, 2016 (GMT +0400)
Sheikh Zayed Road | | Change Station

Elev 13 ft 25.22 °N, 55.28 °E | Updated 1 minute ago

Scattered Clouds
Scattered Clouds
67.8 °F
Feels Like 67.8 °F
N
5.6
Wind Variable Wind from WNW
Gusts 13.0 mph

Today
High -- | Low -- °F
--% Chance of Precip.
Yesterday
High -- | Low -- °F
Precip. -- in
Pressure 29.98 in
Visibility 6.2 miles
Clouds Scattered Clouds 4000 ft
Dew Point 52 °F
Humidity 57%
Rainfall Not available.
Snow Depth Not available.
6:54 AM 5:29 PM
Waxing Gibbous, 87% visible
METAR OMDB 102200Z 26008KT 9999 SCT040 22/10 Q1015 NOSIG
Pressure 29.98 in
Visibility 6.2 miles
Clouds Scattered Clouds 4000 ft
Dew Point 52 °F
Humidity 57%
Rainfall Not available.
Snow Depth Not available.
6:54 AM 5:29 PM
Waxing Gibbous, 87% visible
METAR OMDB 102200Z 26008KT 9999 SCT040 22/10 Q1015 NOSIG

10-Day Weather Forecast

No radar image for this location.
×

Almanac

Astronomy

Dec. 11, 2016 Rise Set
Actual Time
Civil Twilight
Nautical Twilight
Astronomical Twilight
Moon
Length of Visible Light
Length of Day
Tomorrow will be .
, % of the Moon is Illuminated

Today's Extremes

Country Highs Country Lows

Community

WunderPhotos

Upload Photos

1,956,672 photos uploaded!

WunderBlog® & News

Nearby

Air Quality

  Air Quality AQ Index Pollutant
Not available.

Snow Depth

Station Depth Elevation

Earthquake Activity

City Distance Mag. Time & Date
Minimum magnitude displayed is 2.5.

Coastal Water Temperatures

Place Temperature

Stations

Nearby Weather Stations

Station Location Temp. Windchill Dew Point Humidity Wind Precip. Elev Updated Type